Airfield :
LOGIN :

Register | Disclaimer

   EN    FR    IT 

 










Legend :    VFR   Marginal VFR   IFR   Intensive IFR   Very Intensive IFR
Visi :
Ceiling :
>= 8 km
>= 3000ft
5 to 8 km
1000 to 3000 ft
1500m to 5 km
500 to 1000 ft
800 to 1500m
200 to 500 ft
< 800m
< 200 ft
Symbols :   Thunderstorms  Fog  Heavy snow  Heavy precipitations  Wind > 20 kt
SIGMETs :     Misc.  Thunderstorms  Icing  Turbulence  Mountain Waves  Volcanic Ashes






- Airport Elevation : 755 ft
- IATA code : KSC


LZKZ - Kosice

CURRENT METAR :
  • 250430Z 03006KT 9999 -SHRA SCT040 21/18 Q1013 NOSIG

EXPIRED METARs :
  • 250400Z 03008KT CAVOK 21/18 Q1013
  • 250330Z 01010KT CAVOK 20/18 Q1013
  • 250300Z 03009KT 9999 FEW040 20/18 Q1013
  • 250230Z 02009KT 9999 FEW030CB SCT040 21/18 Q1013 RETSRA
  • 250200Z 15010KT 090V220 9999 TSRA SCT010CB BKN035 24/18 Q1015

TAF AMD TAF LZKZ
Valid from the 25 at 02:00 until the 26 at 00:00 UTC


250205Z 2502/2600 32003KT CAVOK
TEMPO 2502/2503 03015G25KT 5000 TSRA SCT010CB SCT045
TEMPO 2510/2518 20015G25KT 7000 TSRA FEW030CB SCT035
BECMG 2518/2520 01006KT



MET'MAP, your aeronautical weather chart ! - Copyright ORBIFLY December 2007 - Disclaimer

ORBIFLY MET'MAP TEAM :

Programming & Development : Alexandra Zaïnal
Concept & original design : Baudouin d'Aumeries
Assistance for programming : Marc-Olivier Méhu
Technical & hardware support : Manuel Goepfert

Contact : metmap@orbifly.com




SOURCES & CREDITS :

   NOAA